createdAt,value
2023-04-18T00:01:41.622Z,1.4
2023-04-18T00:08:08.984Z,1.5
2023-04-18T00:13:09.691Z,1.4
2023-04-18T00:18:10.374Z,1.4
2023-04-18T00:23:13.279Z,1.2
2023-04-18T00:28:11.828Z,1.3
2023-04-18T00:33:12.482Z,1.5
2023-04-18T00:38:13.049Z,1.6
2023-04-18T00:43:13.940Z,1.9
2023-04-18T00:48:14.551Z,1.3
2023-04-18T00:53:15.230Z,1.6
2023-04-18T00:58:16.000Z,1.5
2023-04-18T01:03:16.869Z,1.4
2023-04-18T01:08:17.448Z,1.4
2023-04-18T01:13:18.016Z,1.3
2023-04-18T01:18:18.790Z,1.3
2023-04-18T01:23:19.625Z,1.3
2023-04-18T01:28:20.244Z,1.3
2023-04-18T01:33:20.936Z,1.2
2023-04-18T01:38:21.755Z,1.3
2023-04-18T01:43:22.421Z,1.4
2023-04-18T01:48:23.085Z,1.4
2023-04-18T01:53:23.922Z,1.3
2023-04-18T01:58:24.594Z,1.3
2023-04-18T02:03:25.371Z,1.3
2023-04-18T02:08:25.998Z,1.3
2023-04-18T02:13:26.722Z,1.3
2023-04-18T02:18:27.490Z,1.3
2023-04-18T02:23:28.275Z,1.3
2023-04-18T02:28:28.847Z,1.4
2023-04-18T02:33:29.662Z,1.4
2023-04-18T02:38:30.496Z,1.4
2023-04-18T02:43:30.943Z,1.3
2023-04-18T02:48:32.068Z,1.6
2023-04-18T02:53:32.564Z,1.5
2023-04-18T02:58:33.259Z,1.4
2023-04-18T03:03:33.956Z,1.9
2023-04-18T03:08:35.119Z,1.7
2023-04-18T03:13:35.532Z,1.7
2023-04-18T03:18:36.178Z,1.5
2023-04-18T03:23:37.373Z,1.5
2023-04-18T03:28:37.616Z,1.8
2023-04-18T03:33:38.410Z,1.5
2023-04-18T03:38:39.118Z,1.8
2023-04-18T03:43:39.874Z,2.0
2023-04-18T03:48:40.502Z,1.4
2023-04-18T03:53:41.281Z,1.6
2023-04-18T03:58:42.112Z,1.3
2023-04-18T04:03:43.051Z,1.3
2023-04-18T04:08:43.875Z,1.4
2023-04-18T04:13:44.208Z,1.6
2023-04-18T04:18:44.888Z,1.4
2023-04-18T04:23:45.787Z,1.5
2023-04-18T04:28:46.537Z,1.5
2023-04-18T04:33:47.097Z,1.7
2023-04-18T04:38:47.996Z,1.7
2023-04-18T04:43:48.653Z,1.8
2023-04-18T04:48:49.450Z,1.5
2023-04-18T04:53:50.050Z,2.2
2023-04-18T04:58:50.802Z,2.4
2023-04-18T05:03:51.686Z,1.7
2023-04-18T05:08:52.359Z,1.8
2023-04-18T05:13:52.864Z,1.7
2023-04-18T05:18:53.676Z,1.9
2023-04-18T05:23:54.760Z,1.7
2023-04-18T05:28:55.097Z,1.7
2023-04-18T05:33:55.897Z,1.9
2023-04-18T05:38:56.770Z,1.9
2023-04-18T05:44:04.784Z,1.8
2023-04-18T05:48:58.103Z,2.2
2023-04-18T05:53:58.944Z,1.8
2023-04-18T05:58:59.603Z,1.8
2023-04-18T06:04:00.435Z,1.9
2023-04-18T06:09:01.246Z,2.2
2023-04-18T06:14:01.659Z,2.4
2023-04-18T06:19:02.411Z,2.2
2023-04-18T06:24:03.135Z,1.9
2023-04-18T06:29:03.805Z,2.2
2023-04-18T06:34:04.519Z,2.6
2023-04-18T06:39:05.308Z,2.5
2023-04-18T06:44:06.014Z,2.5
2023-04-18T06:49:06.706Z,2.4
2023-04-18T06:54:07.437Z,2.7
2023-04-18T06:59:08.080Z,2.6
2023-04-18T07:04:08.940Z,2.6
2023-04-18T07:09:09.638Z,2.6
2023-04-18T07:14:10.174Z,2.6
2023-04-18T07:19:11.183Z,2.2
2023-04-18T07:24:11.717Z,2.6
2023-04-18T07:29:12.275Z,2.1
2023-04-18T07:34:13.220Z,2.2
2023-04-18T07:39:13.768Z,2.4
2023-04-18T07:44:14.663Z,2.1
2023-04-18T07:49:15.278Z,2.4
2023-04-18T07:54:15.880Z,2.7
2023-04-18T07:59:16.796Z,2.9
2023-04-18T08:04:17.297Z,2.3
2023-04-18T08:09:17.863Z,2.2
2023-04-18T08:14:18.613Z,2.3
2023-04-18T08:19:19.350Z,2.5
2023-04-18T08:24:20.015Z,2.3
2023-04-18T08:29:20.732Z,2.3
2023-04-18T08:34:21.559Z,2.4
2023-04-18T08:39:23.660Z,2.5
2023-04-18T08:44:22.903Z,2.6
2023-04-18T08:49:23.551Z,2.3
2023-04-18T08:54:25.546Z,2.0
2023-04-18T08:59:25.062Z,2.0
2023-04-18T09:04:26.157Z,2.0
2023-04-18T09:09:26.834Z,1.8
2023-04-18T09:14:27.369Z,2.1
2023-04-18T09:19:28.004Z,1.8
2023-04-18T09:24:29.083Z,1.7
2023-04-18T09:29:29.497Z,1.9
2023-04-18T09:34:30.320Z,1.9
2023-04-18T09:39:31.023Z,1.6
2023-04-18T09:44:31.849Z,1.5
2023-04-18T09:49:32.519Z,1.8
2023-04-18T09:54:33.360Z,2.2
2023-04-18T09:59:34.006Z,1.6
2023-04-18T10:04:34.966Z,1.7
2023-04-18T10:09:36.042Z,1.6
2023-04-18T10:14:36.401Z,1.6
2023-04-18T10:19:37.156Z,1.8
2023-04-18T10:24:37.938Z,1.7
2023-04-18T10:29:38.681Z,1.8
2023-04-18T10:34:39.428Z,1.7
2023-04-18T10:39:40.267Z,1.8
2023-04-18T10:44:40.949Z,1.6
2023-04-18T10:49:41.779Z,1.5
2023-04-18T10:54:42.824Z,1.4
2023-04-18T10:59:43.379Z,1.3
2023-04-18T11:04:44.089Z,1.5
2023-04-18T11:09:45.564Z,1.3
2023-04-18T11:14:45.777Z,1.3
2023-04-18T11:19:46.751Z,1.3
2023-04-18T11:24:47.573Z,1.6
2023-04-18T11:29:48.380Z,2.1
2023-04-18T11:34:49.059Z,1.8
2023-04-18T11:39:50.003Z,2.6
2023-04-18T11:44:50.794Z,1.7
2023-04-18T11:49:51.630Z,2.1
2023-04-18T11:54:52.380Z,2.4
2023-04-18T11:59:53.134Z,2.0
2023-04-18T12:04:54.326Z,1.4
2023-04-18T12:09:55.066Z,1.8
2023-04-18T12:14:55.715Z,1.6
2023-04-18T12:19:56.454Z,1.5
2023-04-18T12:24:57.293Z,2.3
2023-04-18T12:29:58.053Z,1.4
2023-04-18T12:34:58.787Z,1.7
2023-04-18T12:39:59.679Z,1.4
2023-04-18T12:45:00.365Z,1.6
2023-04-18T12:50:01.152Z,1.5
2023-04-18T12:55:02.008Z,1.6
2023-04-18T13:00:02.709Z,1.5
2023-04-18T13:05:03.692Z,1.4
2023-04-18T13:10:04.724Z,1.7
2023-04-18T13:15:05.213Z,1.3
2023-04-18T13:20:06.046Z,2.0
2023-04-18T13:25:07.267Z,1.4
2023-04-18T13:30:07.710Z,1.5
2023-04-18T13:35:08.555Z,1.5
2023-04-18T13:40:09.472Z,1.4
2023-04-18T13:45:10.092Z,1.4
2023-04-18T13:50:10.920Z,1.7
2023-04-18T13:55:11.854Z,1.5
2023-04-18T14:00:12.817Z,1.7
2023-04-18T14:05:13.509Z,1.4
2023-04-18T14:10:14.613Z,1.5
2023-04-18T14:15:15.217Z,2.0
2023-04-18T14:20:16.007Z,1.4
2023-04-18T14:25:17.135Z,1.5
2023-04-18T14:30:17.593Z,1.5
2023-04-18T14:35:18.465Z,1.2
2023-04-18T14:40:19.434Z,1.1
2023-04-18T14:45:20.188Z,1.3
2023-04-18T14:50:21.002Z,1.3
2023-04-18T14:55:21.961Z,1.3
2023-04-18T15:00:22.785Z,1.5
2023-04-18T15:05:23.610Z,1.3
2023-04-18T15:10:24.568Z,1.6
2023-04-18T15:15:25.368Z,1.6
2023-04-18T15:20:26.182Z,1.5
2023-04-18T15:25:27.276Z,1.8
2023-04-18T15:30:27.875Z,1.7
2023-04-18T15:35:28.863Z,1.7
2023-04-18T15:40:29.834Z,1.8
2023-04-18T15:45:30.533Z,1.6
2023-04-18T15:50:33.347Z,1.6
2023-04-18T15:55:32.385Z,1.8
2023-04-18T16:00:33.124Z,1.7
2023-04-18T16:05:34.083Z,1.9
2023-04-18T16:10:34.996Z,1.6
2023-04-18T16:15:35.890Z,1.8
2023-04-18T16:20:36.640Z,1.8
2023-04-18T16:25:37.908Z,2.3
2023-04-18T16:30:38.464Z,1.5
2023-04-18T16:35:39.405Z,2.1
2023-04-18T16:40:40.216Z,1.9
2023-04-18T16:45:41.145Z,1.7
2023-04-18T16:50:41.990Z,2.0
2023-04-18T16:55:42.938Z,2.2
2023-04-18T17:00:43.788Z,2.2
2023-04-18T17:05:44.750Z,2.0
2023-04-18T17:10:45.666Z,2.0
2023-04-18T17:15:46.427Z,2.5
2023-04-18T17:20:47.183Z,1.9
2023-04-18T17:25:48.170Z,2.1
2023-04-18T17:30:48.984Z,2.0
2023-04-18T17:35:49.841Z,2.2
2023-04-18T17:40:50.710Z,2.1
2023-04-18T17:45:51.567Z,2.4
2023-04-18T17:50:52.410Z,2.2
2023-04-18T17:55:53.283Z,2.1
2023-04-18T18:00:54.269Z,2.1
2023-04-18T18:05:55.122Z,1.9
2023-04-18T18:10:56.110Z,2.2
2023-04-18T18:15:56.628Z,2.4
2023-04-18T18:20:58.179Z,1.8
2023-04-18T18:25:58.559Z,2.1
2023-04-18T18:30:59.081Z,2.0
2023-04-18T18:35:59.909Z,2.1
2023-04-18T18:41:03.489Z,1.8
2023-04-18T18:46:01.496Z,2.1
2023-04-18T18:51:02.220Z,1.9
2023-04-18T18:56:03.061Z,1.7
2023-04-18T19:01:03.919Z,1.8
2023-04-18T19:06:04.735Z,1.7
2023-04-18T19:11:05.891Z,1.7
2023-04-18T19:16:06.237Z,1.6
2023-04-18T19:21:07.013Z,2.0
2023-04-18T19:26:07.906Z,1.7
2023-04-18T19:31:08.698Z,1.7
2023-04-18T19:36:09.473Z,1.4
2023-04-18T19:41:10.186Z,1.6
2023-04-18T19:46:11.002Z,1.5
2023-04-18T19:51:11.723Z,1.7
2023-04-18T19:56:12.524Z,1.7
2023-04-18T20:01:13.260Z,1.5
2023-04-18T20:06:14.823Z,1.6
2023-04-18T20:11:14.854Z,1.5
2023-04-18T20:16:15.569Z,1.5
2023-04-18T20:21:16.346Z,1.5
2023-04-18T20:26:16.967Z,1.4
2023-04-18T20:31:17.937Z,1.5
2023-04-18T20:36:18.529Z,1.6
2023-04-18T20:41:19.393Z,1.5
2023-04-18T20:46:20.029Z,1.8
2023-04-18T20:51:20.732Z,1.8
2023-04-18T20:56:21.491Z,1.6
2023-04-18T21:01:22.131Z,1.7
2023-04-18T21:06:22.737Z,1.8
2023-04-18T21:11:23.930Z,1.6
2023-04-18T21:16:24.292Z,2.0
2023-04-18T21:21:24.971Z,1.8
2023-04-18T21:26:25.910Z,1.6
2023-04-18T21:31:26.372Z,2.1
2023-04-18T21:36:27.102Z,1.9
2023-04-18T21:41:27.850Z,2.0
2023-04-18T21:46:28.360Z,1.9
2023-04-18T21:51:28.981Z,2.1
2023-04-18T21:56:29.939Z,2.0
2023-04-18T22:01:30.426Z,1.9
2023-04-18T22:06:30.982Z,1.8
2023-04-18T22:11:31.934Z,1.9
2023-04-18T22:16:32.518Z,2.0
2023-04-18T22:21:33.090Z,1.8
2023-04-18T22:26:34.194Z,1.8
2023-04-18T22:31:34.484Z,2.2
2023-04-18T22:36:35.152Z,2.2
2023-04-18T22:41:35.916Z,2.0
2023-04-18T22:46:36.721Z,1.9
2023-04-18T22:51:37.185Z,1.9
2023-04-18T22:56:37.939Z,1.9
2023-04-18T23:01:38.855Z,2.1
2023-04-18T23:06:39.230Z,2.1
2023-04-18T23:11:40.330Z,1.8
2023-04-18T23:16:42.556Z,2.0
2023-04-18T23:21:41.208Z,1.9
2023-04-18T23:26:42.236Z,1.9
2023-04-18T23:31:42.525Z,2.0
2023-04-18T23:36:43.106Z,2.0
2023-04-18T23:41:43.933Z,1.8
2023-04-18T23:46:44.619Z,2.0
2023-04-18T23:51:45.158Z,1.9
2023-04-18T23:56:46.079Z,2.0
